Volkan Dursun

Olheiro - Galatasaray
4 Jun 2028
Domingo
Processo

Personalidade

Adaptabilidade (7) Ambição (16) Controvérsia (1) Lealdade (13) Pressão (10) Profissionalismo (11) Espírito Esportivo (6) Temperamento (3)

Perfil

Estilo de Treinamento Democrático
Licença Continental Pro
Determinação 6
Gestão de Pessoas 10
Motivação 10
Disciplina 11
Satisfação no Trabalho
47%
Fadiga
0%
Função Olheiro
Salário 34.2K p/s
Contrato 14.03.2029

Desempenho

Comportamento Bom
Eficácia do Treinamento
26%
Desenvolvimento do Jogador
80%
Prevenção de Lesões
75%
Implementação Tática
70%

Eventos Recentes

Avaliou um jogador agora

Monitorando agora

61
Jogador Clube Status Habilidade Confiança Observado Última observação Último voto
Diego Polenta Trabzonspor Perdido 116 / 109 72% 1 02.06.2028 -
Taty Castellanos West Ham United Ativo 153 / 160 40% 1 01.06.2028 -
Charles De Ketelaere Atalanta Ativo 152 / 148 40% 1 01.06.2028 -
Iván Romero Levante Ativo 138 / 141 40% 1 01.06.2028 -
Leonardo Campana New England Revolution Ativo 129 / 135 40% 1 23.08.2027 -
Jonathan David Juventus Ativo 148 / 165 40% 1 17.08.2027 -
Donyell Malen AS Roma Ativo 146 / 148 40% 1 17.08.2027 -
Mbekezeli Mbokazi Chicago Fire Ativo 133 / 128 40% 1 04.08.2027 -
Daniel Banjaqui Benfica Ativo 126 / 137 40% 3 30.07.2027 -
Davide Bartesaghi AC Milan Ativo 134 / 145 40% 2 30.07.2027 -
Jorrel Hato Chelsea Ativo 154 / 161 40% 1 30.07.2027 -
Ismaël Baouf Cambuur Ativo 110 / 131 40% 1 29.07.2027 -
Christ Inao Oulaï Fiorentina Ativo 141 / 140 40% 2 28.07.2027 -
Miguel Figueiredo Benfica Ativo 118 / 123 40% 2 28.07.2027 -
Jaydee Canvot Crystal Palace Ativo 126 / 146 40% 1 28.07.2027 -
Ollie Scarles West Ham United Ativo 130 / 126 40% 3 09.07.2027 -
Finn Jeltsch VfB Stuttgart Ativo 147 / 143 40% 2 09.07.2027 -
Rafik el Arguioui Utrecht Ativo 114 / 118 40% 1 09.07.2027 -
Gorka Gorosabel Real Sociedad Ativo 108 / 123 40% 1 06.07.2027 -
Milan Roganović Partizan Ativo 111 / 133 40% 1 05.07.2027 -
Gady Beyuku Modena Ativo 104 / 121 40% 1 05.07.2027 -
Bazoumana Touré Newcastle United Ativo 136 / 137 40% 1 03.07.2027 -
Morgan Manyama SuperSport United Ativo 114 / 111 40% 1 03.07.2027 -
Lucas Ferreira Shakhtar Ativo 124 / 126 40% 1 30.06.2027 -
Mfundo Vilakazi Kaizer Chiefs Ativo 110 / 109 40% 1 30.06.2027 -
Otto Stange Hamburger SV Ativo 123 / 129 40% 1 30.06.2027 -
Aurèle Amenda Coventry City Ativo 129 / 139 40% 2 24.06.2027 -
Samuele Angori Pisa Ativo 146 / 137 40% 1 24.06.2027 -
Alfie Gilchrist West Bromwich Albion Ativo 118 / 132 40% 1 24.06.2027 -
Matvey Kislyak CSKA Moscow Ativo 129 / 142 40% 1 23.06.2027 -
Kirill Glebov CSKA Moscow Ativo 133 / 138 40% 2 21.06.2027 -
Olti Hyseni Brondby Ativo 119 / 116 40% 1 21.06.2027 -
Mario Mitaj Al-Ittihad Ativo 142 / 126 40% 1 21.06.2027 -
Adam Obert Cagliari Ativo 137 / 123 40% 1 21.06.2027 -
Alysson Edward Aston Villa Ativo 112 / 117 40% 1 19.06.2027 -
Juan Rodríguez Cagliari Ativo 131 / 133 40% 1 18.06.2027 -
Andy Diouf Inter Ativo 143 / 132 40% 1 18.06.2027 -
Matheus Gonçalves Al-Ahli Ativo 128 / 128 40% 2 16.06.2027 -
Máximo Perrone Como Ativo 136 / 157 40% 1 16.06.2027 -
Mahamadou Doumbia Al-Ittihad Ativo 124 / 132 40% 1 16.06.2027 -
Pablo Felipe West Ham United Ativo 139 / 134 40% 4 11.06.2027 -
Jonathan Rowe Bologna Ativo 131 / 136 40% 2 11.06.2027 -
Aral Şimşir Trabzonspor Ativo 126 / 137 40% 1 11.06.2027 -
Cristian Shpendi Cesena Ativo 129 / 142 40% 1 10.06.2027 -
Fábio Carvalho Brentford Ativo 142 / 149 40% 1 10.06.2027 -
Ethan Williams Peterborough United Ativo 114 / 124 40% 3 07.06.2027 -
Rayan Bournemouth Ativo 130 / 152 40% 3 07.06.2027 -
Thierno Barry Everton Ativo 130 / 147 40% 1 01.06.2027 -
Lorenzo Colombo Genoa Ativo 135 / 131 40% 1 30.01.2027 -
Matteo Cancellieri Lazio Ativo 148 / 143 40% 1 30.01.2027 -
Stefanos Tzimas Brighton Ativo 126 / 148 40% 1 25.01.2027 -
Antoni Milambo Brentford Ativo 138 / 149 40% 2 23.01.2027 -
Francesco Pio Esposito Inter Ativo 151 / 159 40% 1 22.01.2027 -
Rocco Vata Watford Ativo 128 / 111 40% 1 18.01.2027 -
Josh King Chelsea Ativo 128 / 144 40% 1 07.01.2027 -
Joe Gelhardt Hull City Ativo 130 / 122 40% 1 05.01.2027 -
Bongani Kekana SuperSport United Ativo 134 / 131 40% 1 03.01.2027 -
Álex Valle Como Ativo 137 / 130 40% 1 03.01.2027 -
Mohamed-Ali Cho Hull City Ativo 126 / 124 40% 1 02.01.2027 -
Wagner Pina Trabzonspor Ativo 129 / 128 40% 1 01.01.2027 Mais informações
Sidny Lopes Cabral Trabzonspor Ativo 135 / 141 40% 1 01.01.2027 -